sensor_id;sensor_type;location;lat;lon;timestamp;P1;durP1;ratioP1;P2;durP2;ratioP2
4754;SDS011;2391;47.212;7.542;2022-08-05T00:01:19;1.50;;;1.40;;
4754;SDS011;2391;47.212;7.542;2022-08-05T00:03:46;1.63;;;1.53;;
4754;SDS011;2391;47.212;7.542;2022-08-05T00:06:13;2.57;;;1.70;;
4754;SDS011;2391;47.212;7.542;2022-08-05T00:08:40;3.40;;;2.23;;
4754;SDS011;2391;47.212;7.542;2022-08-05T00:11:08;3.23;;;2.00;;
4754;SDS011;2391;47.212;7.542;2022-08-05T00:13:36;4.37;;;2.30;;
4754;SDS011;2391;47.212;7.542;2022-08-05T00:16:03;5.40;;;1.90;;
4754;SDS011;2391;47.212;7.542;2022-08-05T00:18:30;1.93;;;1.70;;
4754;SDS011;2391;47.212;7.542;2022-08-05T00:20:56;3.67;;;1.80;;
4754;SDS011;2391;47.212;7.542;2022-08-05T00:23:22;2.10;;;1.90;;
4754;SDS011;2391;47.212;7.542;2022-08-05T00:25:48;1.93;;;1.70;;
4754;SDS011;2391;47.212;7.542;2022-08-05T00:28:15;1.70;;;1.60;;
4754;SDS011;2391;47.212;7.542;2022-08-05T00:30:41;1.67;;;1.57;;
4754;SDS011;2391;47.212;7.542;2022-08-05T00:33:07;1.80;;;1.60;;
4754;SDS011;2391;47.212;7.542;2022-08-05T00:35:33;2.90;;;1.70;;
4754;SDS011;2391;47.212;7.542;2022-08-05T00:38:00;1.77;;;1.60;;
4754;SDS011;2391;47.212;7.542;2022-08-05T00:40:26;4.77;;;2.00;;
4754;SDS011;2391;47.212;7.542;2022-08-05T00:42:52;2.00;;;1.50;;
4754;SDS011;2391;47.212;7.542;2022-08-05T00:45:19;1.83;;;1.70;;
4754;SDS011;2391;47.212;7.542;2022-08-05T00:47:44;2.80;;;1.47;;
4754;SDS011;2391;47.212;7.542;2022-08-05T00:50:10;1.67;;;1.50;;
4754;SDS011;2391;47.212;7.542;2022-08-05T00:52:36;1.83;;;1.73;;
4754;SDS011;2391;47.212;7.542;2022-08-05T00:55:02;2.23;;;1.60;;
4754;SDS011;2391;47.212;7.542;2022-08-05T00:57:29;2.90;;;1.60;;
4754;SDS011;2391;47.212;7.542;2022-08-05T00:59:55;2.50;;;1.57;;
4754;SDS011;2391;47.212;7.542;2022-08-05T01:02:20;4.03;;;1.77;;
4754;SDS011;2391;47.212;7.542;2022-08-05T01:04:46;2.50;;;1.83;;
4754;SDS011;2391;47.212;7.542;2022-08-05T01:07:12;1.67;;;1.57;;
4754;SDS011;2391;47.212;7.542;2022-08-05T01:09:38;3.10;;;1.60;;
4754;SDS011;2391;47.212;7.542;2022-08-05T01:12:06;1.70;;;1.60;;
4754;SDS011;2391;47.212;7.542;2022-08-05T01:14:55;1.80;;;1.70;;
4754;SDS011;2391;47.212;7.542;2022-08-05T01:28:34;1.60;;;1.40;;
4754;SDS011;2391;47.212;7.542;2022-08-05T01:32:04;1.80;;;1.70;;
4754;SDS011;2391;47.212;7.542;2022-08-05T01:33:55;1.60;;;1.50;;
4754;SDS011;2391;47.212;7.542;2022-08-05T01:36:30;2.37;;;1.70;;
4754;SDS011;2391;47.212;7.542;2022-08-05T01:38:58;2.17;;;1.97;;
4754;SDS011;2391;47.212;7.542;2022-08-05T01:41:25;1.67;;;1.57;;
4754;SDS011;2391;47.212;7.542;2022-08-05T01:43:53;4.33;;;1.70;;
4754;SDS011;2391;47.212;7.542;2022-08-05T01:46:21;6.13;;;1.60;;
4754;SDS011;2391;47.212;7.542;2022-08-05T01:48:49;1.50;;;1.40;;
4754;SDS011;2391;47.212;7.542;2022-08-05T01:51:18;4.80;;;1.40;;
4754;SDS011;2391;47.212;7.542;2022-08-05T01:53:45;1.70;;;1.47;;
4754;SDS011;2391;47.212;7.542;2022-08-05T01:56:13;1.70;;;1.60;;
4754;SDS011;2391;47.212;7.542;2022-08-05T01:58:40;4.80;;;1.50;;
4754;SDS011;2391;47.212;7.542;2022-08-05T02:01:08;1.83;;;1.73;;
4754;SDS011;2391;47.212;7.542;2022-08-05T02:03:38;2.40;;;1.80;;
4754;SDS011;2391;47.212;7.542;2022-08-05T02:06:07;2.00;;;1.70;;
4754;SDS011;2391;47.212;7.542;2022-08-05T02:08:34;1.83;;;1.73;;
4754;SDS011;2391;47.212;7.542;2022-08-05T02:11:07;3.00;;;1.70;;
4754;SDS011;2391;47.212;7.542;2022-08-05T02:13:55;1.73;;;1.63;;
4754;SDS011;2391;47.212;7.542;2022-08-05T02:16:24;3.13;;;1.90;;
4754;SDS011;2391;47.212;7.542;2022-08-05T02:19:01;1.40;;;1.30;;
4754;SDS011;2391;47.212;7.542;2022-08-05T02:21:30;3.27;;;1.73;;
4754;SDS011;2391;47.212;7.542;2022-08-05T02:24:03;2.13;;;1.80;;
4754;SDS011;2391;47.212;7.542;2022-08-05T02:26:35;2.93;;;1.60;;
4754;SDS011;2391;47.212;7.542;2022-08-05T02:29:08;2.00;;;1.90;;
4754;SDS011;2391;47.212;7.542;2022-08-05T02:31:37;1.63;;;1.53;;
4754;SDS011;2391;47.212;7.542;2022-08-05T02:34:08;1.80;;;1.70;;
4754;SDS011;2391;47.212;7.542;2022-08-05T02:36:39;1.77;;;1.67;;
4754;SDS011;2391;47.212;7.542;2022-08-05T02:39:06;1.67;;;1.57;;
4754;SDS011;2391;47.212;7.542;2022-08-05T02:41:34;8.30;;;1.40;;
4754;SDS011;2391;47.212;7.542;2022-08-05T02:44:02;1.73;;;1.63;;
4754;SDS011;2391;47.212;7.542;2022-08-05T02:46:30;2.83;;;2.10;;
4754;SDS011;2391;47.212;7.542;2022-08-05T02:48:56;2.50;;;1.80;;
4754;SDS011;2391;47.212;7.542;2022-08-05T02:51:22;1.87;;;1.77;;
4754;SDS011;2391;47.212;7.542;2022-08-05T02:53:50;2.43;;;1.63;;
4754;SDS011;2391;47.212;7.542;2022-08-05T02:56:16;2.30;;;1.93;;
4754;SDS011;2391;47.212;7.542;2022-08-05T02:58:43;1.83;;;1.73;;
4754;SDS011;2391;47.212;7.542;2022-08-05T03:01:11;2.07;;;1.53;;
4754;SDS011;2391;47.212;7.542;2022-08-05T03:03:51;1.60;;;1.50;;
4754;SDS011;2391;47.212;7.542;2022-08-05T03:06:19;1.77;;;1.67;;
4754;SDS011;2391;47.212;7.542;2022-08-05T03:08:46;2.27;;;1.60;;
4754;SDS011;2391;47.212;7.542;2022-08-05T03:11:17;1.60;;;1.50;;
4754;SDS011;2391;47.212;7.542;2022-08-05T03:13:45;2.77;;;1.60;;
4754;SDS011;2391;47.212;7.542;2022-08-05T03:16:11;2.37;;;1.90;;
4754;SDS011;2391;47.212;7.542;2022-08-05T03:18:37;1.80;;;1.70;;
4754;SDS011;2391;47.212;7.542;2022-08-05T03:21:03;2.53;;;1.37;;
4754;SDS011;2391;47.212;7.542;2022-08-05T03:23:29;6.00;;;1.70;;
4754;SDS011;2391;47.212;7.542;2022-08-05T03:25:56;1.77;;;1.67;;
4754;SDS011;2391;47.212;7.542;2022-08-05T03:28:22;1.47;;;1.37;;
4754;SDS011;2391;47.212;7.542;2022-08-05T03:30:49;1.60;;;1.50;;
4754;SDS011;2391;47.212;7.542;2022-08-05T03:33:16;2.07;;;1.60;;
4754;SDS011;2391;47.212;7.542;2022-08-05T03:35:43;2.60;;;1.60;;
4754;SDS011;2391;47.212;7.542;2022-08-05T03:38:10;1.57;;;1.47;;
4754;SDS011;2391;47.212;7.542;2022-08-05T03:40:44;2.00;;;1.77;;
4754;SDS011;2391;47.212;7.542;2022-08-05T03:43:08;2.03;;;1.93;;
4754;SDS011;2391;47.212;7.542;2022-08-05T03:45:34;1.73;;;1.63;;
4754;SDS011;2391;47.212;7.542;2022-08-05T03:48:00;1.40;;;1.30;;
4754;SDS011;2391;47.212;7.542;2022-08-05T03:51:12;1.53;;;1.43;;
4754;SDS011;2391;47.212;7.542;2022-08-05T03:53:09;1.97;;;1.40;;
4754;SDS011;2391;47.212;7.542;2022-08-05T03:55:38;2.07;;;1.90;;
4754;SDS011;2391;47.212;7.542;2022-08-05T03:58:08;1.57;;;1.33;;
4754;SDS011;2391;47.212;7.542;2022-08-05T04:00:36;1.60;;;1.50;;
4754;SDS011;2391;47.212;7.542;2022-08-05T04:03:04;2.80;;;1.67;;
4754;SDS011;2391;47.212;7.542;2022-08-05T04:05:32;1.70;;;1.60;;
4754;SDS011;2391;47.212;7.542;2022-08-05T04:08:01;2.13;;;1.73;;
4754;SDS011;2391;47.212;7.542;2022-08-05T04:10:28;1.77;;;1.67;;
4754;SDS011;2391;47.212;7.542;2022-08-05T04:12:55;2.60;;;1.50;;
4754;SDS011;2391;47.212;7.542;2022-08-05T04:15:22;3.23;;;1.83;;
4754;SDS011;2391;47.212;7.542;2022-08-05T04:17:47;2.20;;;2.07;;
4754;SDS011;2391;47.212;7.542;2022-08-05T04:20:20;2.33;;;1.40;;
4754;SDS011;2391;47.212;7.542;2022-08-05T04:22:47;1.70;;;1.60;;
4754;SDS011;2391;47.212;7.542;2022-08-05T04:25:13;2.13;;;1.57;;
4754;SDS011;2391;47.212;7.542;2022-08-05T04:27:39;1.70;;;1.60;;
4754;SDS011;2391;47.212;7.542;2022-08-05T04:30:05;2.80;;;1.80;;
4754;SDS011;2391;47.212;7.542;2022-08-05T04:32:32;2.30;;;2.10;;
4754;SDS011;2391;47.212;7.542;2022-08-05T04:34:58;8.00;;;2.20;;
4754;SDS011;2391;47.212;7.542;2022-08-05T04:37:24;2.50;;;1.93;;
4754;SDS011;2391;47.212;7.542;2022-08-05T04:39:49;2.97;;;1.80;;
4754;SDS011;2391;47.212;7.542;2022-08-05T04:42:15;2.03;;;1.77;;
4754;SDS011;2391;47.212;7.542;2022-08-05T04:44:41;4.33;;;1.80;;
4754;SDS011;2391;47.212;7.542;2022-08-05T04:47:07;1.93;;;1.83;;
4754;SDS011;2391;47.212;7.542;2022-08-05T04:49:33;17.20;;;2.50;;
4754;SDS011;2391;47.212;7.542;2022-08-05T04:51:59;2.10;;;1.90;;
4754;SDS011;2391;47.212;7.542;2022-08-05T04:54:25;1.80;;;1.70;;
4754;SDS011;2391;47.212;7.542;2022-08-05T04:56:55;2.80;;;1.80;;
4754;SDS011;2391;47.212;7.542;2022-08-05T04:59:19;2.27;;;2.07;;
4754;SDS011;2391;47.212;7.542;2022-08-05T05:01:51;2.00;;;1.90;;
4754;SDS011;2391;47.212;7.542;2022-08-05T05:04:14;4.30;;;1.90;;
4754;SDS011;2391;47.212;7.542;2022-08-05T05:06:40;1.90;;;1.80;;
4754;SDS011;2391;47.212;7.542;2022-08-05T05:09:06;1.83;;;1.37;;
4754;SDS011;2391;47.212;7.542;2022-08-05T05:11:32;4.30;;;1.87;;
4754;SDS011;2391;47.212;7.542;2022-08-05T05:13:58;2.00;;;1.90;;
4754;SDS011;2391;47.212;7.542;2022-08-05T05:16:24;2.63;;;1.70;;
4754;SDS011;2391;47.212;7.542;2022-08-05T05:18:49;1.60;;;1.50;;
4754;SDS011;2391;47.212;7.542;2022-08-05T05:21:15;3.50;;;1.80;;
4754;SDS011;2391;47.212;7.542;2022-08-05T05:23:41;2.00;;;1.90;;
4754;SDS011;2391;47.212;7.542;2022-08-05T05:26:09;2.23;;;1.80;;
4754;SDS011;2391;47.212;7.542;2022-08-05T05:28:35;3.53;;;1.80;;
4754;SDS011;2391;47.212;7.542;2022-08-05T05:31:01;1.60;;;1.43;;
4754;SDS011;2391;47.212;7.542;2022-08-05T05:33:27;1.70;;;1.60;;
4754;SDS011;2391;47.212;7.542;2022-08-05T05:35:58;1.83;;;1.60;;
4754;SDS011;2391;47.212;7.542;2022-08-05T05:38:23;2.13;;;1.93;;
4754;SDS011;2391;47.212;7.542;2022-08-05T05:40:49;2.30;;;1.90;;
4754;SDS011;2391;47.212;7.542;2022-08-05T05:43:15;6.43;;;1.77;;
4754;SDS011;2391;47.212;7.542;2022-08-05T05:45:42;2.70;;;1.93;;
4754;SDS011;2391;47.212;7.542;2022-08-05T05:48:08;1.97;;;1.87;;
4754;SDS011;2391;47.212;7.542;2022-08-05T05:50:36;2.10;;;2.00;;
4754;SDS011;2391;47.212;7.542;2022-08-05T05:53:04;2.87;;;2.03;;
4754;SDS011;2391;47.212;7.542;2022-08-05T05:55:31;2.90;;;1.60;;
4754;SDS011;2391;47.212;7.542;2022-08-05T05:57:58;3.43;;;1.93;;
4754;SDS011;2391;47.212;7.542;2022-08-05T06:00:24;4.03;;;1.80;;
4754;SDS011;2391;47.212;7.542;2022-08-05T06:02:56;2.20;;;2.00;;
4754;SDS011;2391;47.212;7.542;2022-08-05T06:05:21;3.00;;;2.00;;
4754;SDS011;2391;47.212;7.542;2022-08-05T06:07:52;1.70;;;1.57;;
4754;SDS011;2391;47.212;7.542;2022-08-05T06:10:18;1.77;;;1.67;;
4754;SDS011;2391;47.212;7.542;2022-08-05T06:12:44;1.90;;;1.80;;
4754;SDS011;2391;47.212;7.542;2022-08-05T06:15:10;2.03;;;1.93;;
4754;SDS011;2391;47.212;7.542;2022-08-05T06:17:36;1.70;;;1.60;;
4754;SDS011;2391;47.212;7.542;2022-08-05T06:20:07;2.10;;;2.00;;
4754;SDS011;2391;47.212;7.542;2022-08-05T06:22:32;3.07;;;2.03;;
4754;SDS011;2391;47.212;7.542;2022-08-05T06:24:59;4.30;;;1.90;;
4754;SDS011;2391;47.212;7.542;2022-08-05T06:27:27;2.00;;;1.90;;
4754;SDS011;2391;47.212;7.542;2022-08-05T06:29:55;7.03;;;1.80;;
4754;SDS011;2391;47.212;7.542;2022-08-05T06:32:21;1.50;;;1.40;;
4754;SDS011;2391;47.212;7.542;2022-08-05T06:34:47;5.93;;;1.40;;
4754;SDS011;2391;47.212;7.542;2022-08-05T06:37:19;1.63;;;1.53;;
4754;SDS011;2391;47.212;7.542;2022-08-05T06:39:48;1.27;;;1.17;;
4754;SDS011;2391;47.212;7.542;2022-08-05T06:42:16;2.03;;;1.30;;
4754;SDS011;2391;47.212;7.542;2022-08-05T06:44:44;1.83;;;1.47;;
4754;SDS011;2391;47.212;7.542;2022-08-05T06:47:15;3.53;;;1.40;;
4754;SDS011;2391;47.212;7.542;2022-08-05T06:49:45;2.20;;;1.40;;
4754;SDS011;2391;47.212;7.542;2022-08-05T06:52:13;1.30;;;1.10;;
4754;SDS011;2391;47.212;7.542;2022-08-05T06:54:51;1.83;;;1.20;;
4754;SDS011;2391;47.212;7.542;2022-08-05T06:57:23;1.40;;;1.30;;
4754;SDS011;2391;47.212;7.542;2022-08-05T06:59:51;2.23;;;1.10;;
4754;SDS011;2391;47.212;7.542;2022-08-05T07:02:32;3.97;;;1.33;;
4754;SDS011;2391;47.212;7.542;2022-08-05T07:05:00;2.20;;;1.57;;
4754;SDS011;2391;47.212;7.542;2022-08-05T07:10:16;1.43;;;1.20;;
4754;SDS011;2391;47.212;7.542;2022-08-05T07:12:57;3.53;;;1.50;;
4754;SDS011;2391;47.212;7.542;2022-08-05T07:15:41;1.20;;;1.10;;
4754;SDS011;2391;47.212;7.542;2022-08-05T07:18:29;3.53;;;1.40;;
4754;SDS011;2391;47.212;7.542;2022-08-05T07:20:56;4.57;;;1.70;;
4754;SDS011;2391;47.212;7.542;2022-08-05T07:23:37;1.50;;;1.40;;
4754;SDS011;2391;47.212;7.542;2022-08-05T07:29:07;1.90;;;1.27;;
4754;SDS011;2391;47.212;7.542;2022-08-05T07:43:18;2.87;;;1.30;;
4754;SDS011;2391;47.212;7.542;2022-08-05T07:51:52;2.27;;;1.60;;
4754;SDS011;2391;47.212;7.542;2022-08-05T07:54:52;3.23;;;1.60;;
4754;SDS011;2391;47.212;7.542;2022-08-05T07:57:38;7.13;;;1.63;;
4754;SDS011;2391;47.212;7.542;2022-08-05T08:00:24;1.73;;;1.30;;
4754;SDS011;2391;47.212;7.542;2022-08-05T08:19:18;1.60;;;1.50;;
4754;SDS011;2391;47.212;7.542;2022-08-05T08:21:49;3.70;;;1.70;;
4754;SDS011;2391;47.212;7.542;2022-08-05T08:24:37;3.00;;;1.80;;
4754;SDS011;2391;47.212;7.542;2022-08-05T08:27:23;3.33;;;1.30;;
4754;SDS011;2391;47.212;7.542;2022-08-05T08:29:49;1.80;;;1.70;;
4754;SDS011;2391;47.212;7.542;2022-08-05T08:32:26;2.40;;;1.53;;
4754;SDS011;2391;47.212;7.542;2022-08-05T08:34:55;4.50;;;1.77;;
4754;SDS011;2391;47.212;7.542;2022-08-05T08:37:38;2.57;;;1.80;;
4754;SDS011;2391;47.212;7.542;2022-08-05T08:40:01;2.20;;;1.90;;
4754;SDS011;2391;47.212;7.542;2022-08-05T08:42:28;8.50;;;2.00;;
4754;SDS011;2391;47.212;7.542;2022-08-05T08:47:39;2.00;;;1.83;;
4754;SDS011;2391;47.212;7.542;2022-08-05T08:50:16;1.60;;;1.50;;
4754;SDS011;2391;47.212;7.542;2022-08-05T08:52:48;7.40;;;2.00;;
4754;SDS011;2391;47.212;7.542;2022-08-05T08:55:19;2.50;;;1.63;;
4754;SDS011;2391;47.212;7.542;2022-08-05T08:57:51;7.77;;;1.80;;
4754;SDS011;2391;47.212;7.542;2022-08-05T09:00:27;2.13;;;1.90;;
4754;SDS011;2391;47.212;7.542;2022-08-05T09:02:55;3.20;;;2.10;;
4754;SDS011;2391;47.212;7.542;2022-08-05T09:05:37;2.80;;;1.77;;
4754;SDS011;2391;47.212;7.542;2022-08-05T09:07:54;6.37;;;2.17;;
4754;SDS011;2391;47.212;7.542;2022-08-05T09:10:22;2.50;;;1.57;;
4754;SDS011;2391;47.212;7.542;2022-08-05T09:12:48;3.53;;;1.70;;
4754;SDS011;2391;47.212;7.542;2022-08-05T09:15:14;1.60;;;1.50;;
4754;SDS011;2391;47.212;7.542;2022-08-05T09:17:49;4.60;;;1.70;;
4754;SDS011;2391;47.212;7.542;2022-08-05T09:20:15;1.63;;;1.53;;
4754;SDS011;2391;47.212;7.542;2022-08-05T09:25:31;1.77;;;1.67;;
4754;SDS011;2391;47.212;7.542;2022-08-05T09:28:11;2.70;;;2.00;;
4754;SDS011;2391;47.212;7.542;2022-08-05T09:33:25;3.20;;;1.60;;
4754;SDS011;2391;47.212;7.542;2022-08-05T09:35:57;5.80;;;1.90;;
4754;SDS011;2391;47.212;7.542;2022-08-05T09:38:29;2.13;;;1.60;;
4754;SDS011;2391;47.212;7.542;2022-08-05T09:41:13;9.80;;;2.03;;
4754;SDS011;2391;47.212;7.542;2022-08-05T09:43:36;2.73;;;2.03;;
4754;SDS011;2391;47.212;7.542;2022-08-05T09:46:21;6.80;;;1.80;;
4754;SDS011;2391;47.212;7.542;2022-08-05T09:48:46;2.73;;;1.57;;
4754;SDS011;2391;47.212;7.542;2022-08-05T09:51:14;3.83;;;1.63;;
4754;SDS011;2391;47.212;7.542;2022-08-05T09:53:45;3.20;;;1.87;;
4754;SDS011;2391;47.212;7.542;2022-08-05T09:56:28;2.90;;;2.13;;
4754;SDS011;2391;47.212;7.542;2022-08-05T09:58:59;2.17;;;1.80;;
4754;SDS011;2391;47.212;7.542;2022-08-05T10:01:38;2.10;;;2.00;;
4754;SDS011;2391;47.212;7.542;2022-08-05T10:04:09;2.13;;;1.73;;
4754;SDS011;2391;47.212;7.542;2022-08-05T10:06:53;4.33;;;1.80;;
4754;SDS011;2391;47.212;7.542;2022-08-05T10:14:39;4.50;;;1.90;;
4754;SDS011;2391;47.212;7.542;2022-08-05T10:17:15;1.93;;;1.63;;
4754;SDS011;2391;47.212;7.542;2022-08-05T10:19:45;1.90;;;1.80;;
4754;SDS011;2391;47.212;7.542;2022-08-05T10:22:18;1.83;;;1.73;;
4754;SDS011;2391;47.212;7.542;2022-08-05T10:24:57;1.93;;;1.80;;
4754;SDS011;2391;47.212;7.542;2022-08-05T10:30:10;3.70;;;1.87;;
4754;SDS011;2391;47.212;7.542;2022-08-05T10:38:08;1.73;;;1.63;;
4754;SDS011;2391;47.212;7.542;2022-08-05T10:46:06;1.83;;;1.73;;
4754;SDS011;2391;47.212;7.542;2022-08-05T10:49:24;2.20;;;1.80;;
4754;SDS011;2391;47.212;7.542;2022-08-05T10:51:21;2.47;;;1.90;;
4754;SDS011;2391;47.212;7.542;2022-08-05T11:02:10;1.50;;;1.40;;
4754;SDS011;2391;47.212;7.542;2022-08-05T11:04:52;3.33;;;1.77;;
4754;SDS011;2391;47.212;7.542;2022-08-05T11:07:34;2.80;;;2.37;;
4754;SDS011;2391;47.212;7.542;2022-08-05T11:33:55;1.70;;;1.60;;
4754;SDS011;2391;47.212;7.542;2022-08-05T11:42:26;2.03;;;1.93;;
4754;SDS011;2391;47.212;7.542;2022-08-05T11:45:30;2.27;;;1.63;;
4754;SDS011;2391;47.212;7.542;2022-08-05T12:01:30;2.50;;;1.83;;
4754;SDS011;2391;47.212;7.542;2022-08-05T12:04:07;2.10;;;2.00;;
4754;SDS011;2391;47.212;7.542;2022-08-05T12:06:41;1.87;;;1.70;;
4754;SDS011;2391;47.212;7.542;2022-08-05T12:09:09;4.20;;;1.63;;
4754;SDS011;2391;47.212;7.542;2022-08-05T12:14:41;1.73;;;1.50;;
4754;SDS011;2391;47.212;7.542;2022-08-05T12:17:15;1.70;;;1.60;;
4754;SDS011;2391;47.212;7.542;2022-08-05T12:19:56;2.37;;;2.10;;
4754;SDS011;2391;47.212;7.542;2022-08-05T12:22:48;6.73;;;1.70;;
4754;SDS011;2391;47.212;7.542;2022-08-05T12:30:12;1.70;;;1.60;;
4754;SDS011;2391;47.212;7.542;2022-08-05T12:33:03;1.80;;;1.70;;
4754;SDS011;2391;47.212;7.542;2022-08-05T12:38:04;2.43;;;1.60;;
4754;SDS011;2391;47.212;7.542;2022-08-05T12:46:06;3.17;;;1.87;;
4754;SDS011;2391;47.212;7.542;2022-08-05T12:48:48;4.30;;;1.60;;
4754;SDS011;2391;47.212;7.542;2022-08-05T12:54:34;1.70;;;1.60;;
4754;SDS011;2391;47.212;7.542;2022-08-05T12:57:07;1.83;;;1.73;;
4754;SDS011;2391;47.212;7.542;2022-08-05T13:02:41;4.90;;;1.70;;
4754;SDS011;2391;47.212;7.542;2022-08-05T13:10:40;2.10;;;2.00;;
4754;SDS011;2391;47.212;7.542;2022-08-05T13:13:11;2.10;;;2.00;;
4754;SDS011;2391;47.212;7.542;2022-08-05T13:18:21;3.00;;;2.07;;
4754;SDS011;2391;47.212;7.542;2022-08-05T13:23:28;3.13;;;2.20;;
4754;SDS011;2391;47.212;7.542;2022-08-05T13:26:02;2.20;;;1.80;;
4754;SDS011;2391;47.212;7.542;2022-08-05T13:31:41;3.40;;;2.00;;
4754;SDS011;2391;47.212;7.542;2022-08-05T13:37:14;2.10;;;1.90;;
4754;SDS011;2391;47.212;7.542;2022-08-05T13:39:52;2.67;;;1.90;;
4754;SDS011;2391;47.212;7.542;2022-08-05T13:42:32;1.90;;;1.80;;
4754;SDS011;2391;47.212;7.542;2022-08-05T13:45:12;2.33;;;2.23;;
4754;SDS011;2391;47.212;7.542;2022-08-05T13:47:54;2.23;;;2.03;;
4754;SDS011;2391;47.212;7.542;2022-08-05T13:50:28;2.40;;;2.30;;
4754;SDS011;2391;47.212;7.542;2022-08-05T13:55:42;2.10;;;1.90;;
4754;SDS011;2391;47.212;7.542;2022-08-05T13:58:17;2.53;;;1.83;;
4754;SDS011;2391;47.212;7.542;2022-08-05T14:03:26;2.30;;;2.10;;
4754;SDS011;2391;47.212;7.542;2022-08-05T14:08:37;2.60;;;2.40;;
4754;SDS011;2391;47.212;7.542;2022-08-05T14:11:23;1.90;;;1.70;;
4754;SDS011;2391;47.212;7.542;2022-08-05T14:13:54;2.13;;;1.90;;
4754;SDS011;2391;47.212;7.542;2022-08-05T14:16:28;5.57;;;2.07;;
4754;SDS011;2391;47.212;7.542;2022-08-05T14:19:10;2.13;;;2.03;;
4754;SDS011;2391;47.212;7.542;2022-08-05T14:26:55;2.30;;;2.20;;
4754;SDS011;2391;47.212;7.542;2022-08-05T14:29:36;3.57;;;2.33;;
4754;SDS011;2391;47.212;7.542;2022-08-05T14:35:07;2.10;;;2.00;;
4754;SDS011;2391;47.212;7.542;2022-08-05T14:49:17;2.50;;;2.40;;
4754;SDS011;2391;47.212;7.542;2022-08-05T14:54:56;4.10;;;2.43;;
4754;SDS011;2391;47.212;7.542;2022-08-05T15:00:34;4.30;;;2.10;;
4754;SDS011;2391;47.212;7.542;2022-08-05T15:03:29;4.17;;;1.90;;
4754;SDS011;2391;47.212;7.542;2022-08-05T15:14:36;2.70;;;2.10;;
4754;SDS011;2391;47.212;7.542;2022-08-05T15:17:34;2.70;;;2.20;;
4754;SDS011;2391;47.212;7.542;2022-08-05T15:20:31;7.90;;;2.30;;
4754;SDS011;2391;47.212;7.542;2022-08-05T15:25:23;2.40;;;2.20;;
4754;SDS011;2391;47.212;7.542;2022-08-05T15:28:10;3.97;;;2.40;;
4754;SDS011;2391;47.212;7.542;2022-08-05T15:33:47;3.50;;;2.53;;
4754;SDS011;2391;47.212;7.542;2022-08-05T15:36:22;9.40;;;2.77;;
4754;SDS011;2391;47.212;7.542;2022-08-05T15:38:52;5.37;;;3.10;;
4754;SDS011;2391;47.212;7.542;2022-08-05T15:41:19;6.20;;;2.90;;
4754;SDS011;2391;47.212;7.542;2022-08-05T15:43:47;14.43;;;3.80;;
4754;SDS011;2391;47.212;7.542;2022-08-05T15:46:13;7.03;;;3.93;;
4754;SDS011;2391;47.212;7.542;2022-08-05T15:48:40;4.70;;;3.67;;
4754;SDS011;2391;47.212;7.542;2022-08-05T15:51:06;4.03;;;3.17;;
4754;SDS011;2391;47.212;7.542;2022-08-05T15:53:32;4.53;;;3.03;;
4754;SDS011;2391;47.212;7.542;2022-08-05T15:55:58;3.23;;;3.00;;
4754;SDS011;2391;47.212;7.542;2022-08-05T15:58:24;8.13;;;2.20;;
4754;SDS011;2391;47.212;7.542;2022-08-05T16:00:50;3.73;;;2.30;;
4754;SDS011;2391;47.212;7.542;2022-08-05T16:03:16;2.50;;;2.30;;
4754;SDS011;2391;47.212;7.542;2022-08-05T16:05:42;2.80;;;2.60;;
4754;SDS011;2391;47.212;7.542;2022-08-05T16:08:08;3.53;;;2.50;;
4754;SDS011;2391;47.212;7.542;2022-08-05T16:10:34;3.60;;;2.33;;
4754;SDS011;2391;47.212;7.542;2022-08-05T16:13:00;4.97;;;2.33;;
4754;SDS011;2391;47.212;7.542;2022-08-05T16:15:26;3.00;;;2.60;;
4754;SDS011;2391;47.212;7.542;2022-08-05T16:17:52;2.50;;;2.30;;
4754;SDS011;2391;47.212;7.542;2022-08-05T16:20:18;3.80;;;1.87;;
4754;SDS011;2391;47.212;7.542;2022-08-05T16:22:44;3.70;;;2.03;;
4754;SDS011;2391;47.212;7.542;2022-08-05T16:25:10;2.20;;;2.00;;
4754;SDS011;2391;47.212;7.542;2022-08-05T16:27:38;4.43;;;2.50;;
4754;SDS011;2391;47.212;7.542;2022-08-05T16:30:04;5.07;;;2.07;;
4754;SDS011;2391;47.212;7.542;2022-08-05T16:32:32;3.23;;;1.90;;
4754;SDS011;2391;47.212;7.542;2022-08-05T16:34:58;2.93;;;2.60;;
4754;SDS011;2391;47.212;7.542;2022-08-05T16:37:25;2.20;;;2.10;;
4754;SDS011;2391;47.212;7.542;2022-08-05T16:39:51;2.47;;;2.00;;
4754;SDS011;2391;47.212;7.542;2022-08-05T16:42:17;5.20;;;2.53;;
4754;SDS011;2391;47.212;7.542;2022-08-05T16:44:43;4.27;;;2.10;;
4754;SDS011;2391;47.212;7.542;2022-08-05T16:47:09;2.40;;;2.20;;
4754;SDS011;2391;47.212;7.542;2022-08-05T16:49:35;6.33;;;2.40;;
4754;SDS011;2391;47.212;7.542;2022-08-05T16:52:03;1.73;;;1.63;;
4754;SDS011;2391;47.212;7.542;2022-08-05T16:54:29;2.30;;;2.07;;
4754;SDS011;2391;47.212;7.542;2022-08-05T16:56:55;3.97;;;2.43;;
4754;SDS011;2391;47.212;7.542;2022-08-05T16:59:21;4.63;;;1.80;;
4754;SDS011;2391;47.212;7.542;2022-08-05T17:01:47;5.90;;;1.83;;
4754;SDS011;2391;47.212;7.542;2022-08-05T17:04:13;3.73;;;1.70;;
4754;SDS011;2391;47.212;7.542;2022-08-05T17:06:39;6.83;;;1.80;;
4754;SDS011;2391;47.212;7.542;2022-08-05T17:09:05;2.07;;;1.80;;
4754;SDS011;2391;47.212;7.542;2022-08-05T17:11:31;2.30;;;2.10;;
4754;SDS011;2391;47.212;7.542;2022-08-05T17:13:59;2.00;;;1.90;;
4754;SDS011;2391;47.212;7.542;2022-08-05T17:16:25;6.00;;;2.37;;
4754;SDS011;2391;47.212;7.542;2022-08-05T17:18:51;5.30;;;1.80;;
4754;SDS011;2391;47.212;7.542;2022-08-05T17:21:20;2.00;;;1.90;;
4754;SDS011;2391;47.212;7.542;2022-08-05T17:23:46;1.87;;;1.77;;
4754;SDS011;2391;47.212;7.542;2022-08-05T17:26:12;1.73;;;1.63;;
4754;SDS011;2391;47.212;7.542;2022-08-05T17:28:38;5.53;;;1.87;;
4754;SDS011;2391;47.212;7.542;2022-08-05T17:31:04;3.13;;;1.87;;
4754;SDS011;2391;47.212;7.542;2022-08-05T17:33:31;9.70;;;2.17;;
4754;SDS011;2391;47.212;7.542;2022-08-05T17:35:57;7.40;;;2.10;;
4754;SDS011;2391;47.212;7.542;2022-08-05T17:38:23;4.53;;;2.33;;
4754;SDS011;2391;47.212;7.542;2022-08-05T17:40:49;4.77;;;1.93;;
4754;SDS011;2391;47.212;7.542;2022-08-05T17:43:15;7.83;;;2.20;;
4754;SDS011;2391;47.212;7.542;2022-08-05T17:45:41;4.37;;;1.90;;
4754;SDS011;2391;47.212;7.542;2022-08-05T17:48:07;3.20;;;2.37;;
4754;SDS011;2391;47.212;7.542;2022-08-05T17:50:33;5.80;;;2.00;;
4754;SDS011;2391;47.212;7.542;2022-08-05T17:53:00;3.23;;;2.37;;
4754;SDS011;2391;47.212;7.542;2022-08-05T17:55:27;4.43;;;1.90;;
4754;SDS011;2391;47.212;7.542;2022-08-05T17:57:54;8.07;;;2.23;;
4754;SDS011;2391;47.212;7.542;2022-08-05T18:00:21;13.90;;;2.97;;
4754;SDS011;2391;47.212;7.542;2022-08-05T18:02:47;4.73;;;2.80;;
4754;SDS011;2391;47.212;7.542;2022-08-05T18:05:13;5.03;;;2.63;;
4754;SDS011;2391;47.212;7.542;2022-08-05T18:07:39;9.63;;;2.87;;
4754;SDS011;2391;47.212;7.542;2022-08-05T18:10:06;4.13;;;2.77;;
4754;SDS011;2391;47.212;7.542;2022-08-05T18:12:32;5.07;;;3.37;;
4754;SDS011;2391;47.212;7.542;2022-08-05T18:14:58;5.57;;;2.77;;
4754;SDS011;2391;47.212;7.542;2022-08-05T18:17:24;3.03;;;2.73;;
4754;SDS011;2391;47.212;7.542;2022-08-05T18:19:50;3.80;;;2.60;;
4754;SDS011;2391;47.212;7.542;2022-08-05T18:22:16;3.00;;;2.53;;
4754;SDS011;2391;47.212;7.542;2022-08-05T18:24:42;2.90;;;2.70;;
4754;SDS011;2391;47.212;7.542;2022-08-05T18:27:08;5.93;;;2.80;;
4754;SDS011;2391;47.212;7.542;2022-08-05T18:29:34;3.43;;;3.13;;
4754;SDS011;2391;47.212;7.542;2022-08-05T18:32:01;3.07;;;2.87;;
4754;SDS011;2391;47.212;7.542;2022-08-05T18:34:27;3.00;;;2.50;;
4754;SDS011;2391;47.212;7.542;2022-08-05T18:36:53;2.97;;;2.63;;
4754;SDS011;2391;47.212;7.542;2022-08-05T18:39:18;2.40;;;2.20;;
4754;SDS011;2391;47.212;7.542;2022-08-05T18:41:44;3.70;;;2.60;;
4754;SDS011;2391;47.212;7.542;2022-08-05T18:44:12;3.20;;;2.17;;
4754;SDS011;2391;47.212;7.542;2022-08-05T18:46:38;5.17;;;2.83;;
4754;SDS011;2391;47.212;7.542;2022-08-05T18:49:04;10.10;;;3.50;;
4754;SDS011;2391;47.212;7.542;2022-08-05T18:51:49;6.57;;;3.50;;
4754;SDS011;2391;47.212;7.542;2022-08-05T18:54:19;5.43;;;3.43;;
4754;SDS011;2391;47.212;7.542;2022-08-05T18:56:45;4.97;;;3.07;;
4754;SDS011;2391;47.212;7.542;2022-08-05T18:59:11;4.33;;;3.10;;
4754;SDS011;2391;47.212;7.542;2022-08-05T19:01:37;6.07;;;3.60;;
4754;SDS011;2391;47.212;7.542;2022-08-05T19:04:03;3.37;;;3.00;;
4754;SDS011;2391;47.212;7.542;2022-08-05T19:06:29;3.40;;;2.80;;
4754;SDS011;2391;47.212;7.542;2022-08-05T19:08:55;3.03;;;2.83;;